Terminal Aerodrome Forecast
Issued by NWS

Home | Current Version | Previous Version | Text Only | Print | Product List | Glossary On
Versions: 1 2 3 4 5 6 7 8 9 10 11 12 13 14 15 16 17 18 19 20 21 22 23 24 25 26 27 28 29 30 31
000
FTUS45 KGJT 311122
TAFTEX
TAF
KTEX 311122Z 3112/0112 13005KT P6SM SCT140
     FM311700 27008G15KT P6SM VCTS SCT080CB BKN120
      TEMPO 3118/3122 VRB10G20KT 5SM TSRA BKN060CB
     FM010100 14005KT P6SM VCSH SCT070 BKN120
     FM010500 12005KT P6SM SCT110=

USA.gov is the U.S. government's official web portal to all federal, state and local government web resources and services.